Time;durP1;ratioP1;P1;durP2;ratioP2;P2;SDS_P1;SDS_P2;PMS_P1;PMS_P2;Temp;Humidity;BMP_temperature;BMP_pressure;BME280_temperature;BME280_humidity;BME280_pressure;Samples;Min_cycle;Max_cycle;Signal;HPM_P1;HPM_P2
2022/10/27 00:02:17;;;;;;;9.95;3.92;;;15.00;99.90;;;;;;5068868;28;20040;-85
2022/10/27 00:04:43;;;;;;;12.90;6.18;;;14.90;99.90;;;;;;5051919;28;20036;-85
2022/10/27 00:07:08;;;;;;;13.82;6.32;;;14.90;99.90;;;;;;5068781;28;20041;-85
2022/10/27 00:09:34;;;;;;;12.80;6.22;;;14.90;99.90;;;;;;5068262;28;20059;-85
2022/10/27 00:11:59;;;;;;;10.15;4.13;;;14.90;99.90;;;;;;5051548;28;20041;-85
2022/10/27 00:14:25;;;;;;;10.70;4.00;;;14.90;99.90;;;;;;5054687;28;20036;-85
2022/10/27 00:16:55;;;;;;;14.30;7.05;;;14.80;99.90;;;;;;5071996;28;20035;-85
2022/10/27 00:19:22;;;;;;;12.30;4.45;;;14.80;99.90;;;;;;5072158;28;20072;-85
2022/10/27 00:21:49;;;;;;;12.35;6.68;;;14.90;99.90;;;;;;5072236;28;20494;-85
2022/10/27 00:24:15;;;;;;;12.45;6.38;;;14.90;99.90;;;;;;5071336;28;20083;-85
2022/10/27 00:26:40;;;;;;;11.63;3.88;;;14.90;99.90;;;;;;5072673;28;20091;-85
2022/10/27 00:29:06;;;;;;;12.75;6.07;;;14.90;99.90;;;;;;5071756;28;20661;-85
2022/10/27 00:31:31;;;;;;;12.38;4.25;;;14.90;99.90;;;;;;5071724;28;20044;-85
2022/10/27 00:33:57;;;;;;;12.02;4.28;;;14.90;99.90;;;;;;5072558;28;20037;-84
2022/10/27 00:36:24;;;;;;;12.27;4.75;;;14.90;99.90;;;;;;5071734;28;20043;-85
2022/10/27 00:38:57;;;;;;;12.50;6.82;;;14.80;99.90;;;;;;5055465;28;20036;-85
2022/10/27 00:41:30;;;;;;;13.48;6.60;;;14.90;99.90;;;;;;5054892;28;20048;-85
2022/10/27 00:43:57;;;;;;;12.52;6.32;;;15.00;99.90;;;;;;5055416;28;20187;-85
2022/10/27 00:46:28;;;;;;;13.15;6.38;;;15.00;99.90;;;;;;5072088;28;20032;-85
2022/10/27 00:49:03;;;;;;;14.77;6.78;;;15.10;99.90;;;;;;5071948;28;20117;-85
2022/10/27 00:51:29;;;;;;;11.90;4.68;;;15.10;99.90;;;;;;5054492;28;20939;-85
2022/10/27 00:53:55;;;;;;;9.32;4.30;;;15.00;99.90;;;;;;5054744;28;20040;-85
2022/10/27 00:56:24;;;;;;;12.98;4.50;;;15.00;99.90;;;;;;5072404;28;20490;-84
2022/10/27 00:58:50;;;;;;;13.15;6.50;;;15.00;99.90;;;;;;5054641;28;20051;-85
2022/10/27 01:01:16;;;;;;;11.45;6.25;;;15.00;99.90;;;;;;5071725;28;20127;-84
2022/10/27 01:03:42;;;;;;;11.60;6.43;;;15.10;99.90;;;;;;5072087;28;20136;-84
2022/10/27 01:06:08;;;;;;;13.88;4.55;;;15.10;99.90;;;;;;5054344;28;20040;-85
2022/10/27 01:08:35;;;;;;;13.25;6.75;;;15.10;99.90;;;;;;5071849;28;20102;-85
2022/10/27 01:11:01;;;;;;;11.90;6.68;;;15.10;99.90;;;;;;5071041;28;20151;-85
2022/10/27 01:13:26;;;;;;;10.52;4.65;;;15.20;99.90;;;;;;5071448;28;20116;-85
2022/10/27 01:16:02;;;;;;;15.25;6.65;;;15.10;99.90;;;;;;5072066;28;20043;-84
2022/10/27 01:19:01;;;;;;;13.40;7.70;;;15.20;99.90;;;;;;5054029;28;20047;-85
2022/10/27 01:22:02;;;;;;;12.82;4.47;;;15.20;99.90;;;;;;5071746;28;20585;-85
2022/10/27 01:24:33;;;;;;;12.43;4.68;;;15.20;99.90;;;;;;5070693;28;20062;-85
2022/10/27 01:27:03;;;;;;;14.07;7.15;;;15.10;99.90;;;;;;5053231;28;20044;-85
2022/10/27 01:29:47;;;;;;;12.88;6.70;;;15.20;99.90;;;;;;5071047;28;20036;-85
2022/10/27 01:32:15;;;;;;;14.18;6.88;;;15.30;99.90;;;;;;5053325;28;20036;-85
2022/10/27 01:34:52;;;;;;;14.68;7.55;;;15.20;99.90;;;;;;5054353;28;20033;-85
2022/10/27 01:37:37;;;;;;;14.35;7.70;;;15.30;99.90;;;;;;5070908;28;20421;-85
2022/10/27 01:40:15;;;;;;;11.82;4.90;;;15.30;99.90;;;;;;5071587;28;20040;-85
2022/10/27 01:42:49;;;;;;;10.20;4.45;;;15.20;99.90;;;;;;5070675;28;20405;-85
2022/10/27 01:45:22;;;;;;;12.88;7.13;;;15.10;99.90;;;;;;5070951;28;20090;-85
2022/10/27 01:47:47;;;;;;;;;;;15.20;99.90;;;;;;5071280;28;20127;-85
2022/10/27 01:50:16;;;;;;;12.25;4.50;;;15.20;99.90;;;;;;5071220;28;20003;-85
2022/10/27 01:52:46;;;;;;;12.93;7.18;;;15.10;99.90;;;;;;5053659;28;20460;-85
2022/10/27 01:55:34;;;;;;;11.43;7.05;;;15.20;99.90;;;;;;5053487;28;20037;-85
2022/10/27 01:58:35;;;;;;;13.02;7.43;;;15.20;99.90;;;;;;5070421;28;20033;-84
2022/10/27 02:01:21;;;;;;;12.73;7.30;;;15.20;99.90;;;;;;5070371;28;20502;-85
2022/10/27 02:04:05;;;;;;;11.18;5.10;;;15.20;99.90;;;;;;5070669;28;20218;-85
2022/10/27 02:06:51;;;;;;;13.45;7.72;;;15.20;99.90;;;;;;5053454;28;20623;-85
2022/10/27 02:09:41;;;;;;;15.55;7.38;;;15.20;99.90;;;;;;5070882;28;20143;-84
2022/10/27 02:12:19;;;;;;;11.80;5.13;;;15.30;99.90;;;;;;5052937;28;20044;-84
2022/10/27 02:14:46;;;;;;;11.18;5.38;;;15.20;99.90;;;;;;5070174;28;20512;-85
2022/10/27 02:17:12;;;;;;;12.05;7.85;;;15.10;99.90;;;;;;5069841;28;20051;-85
2022/10/27 02:19:41;;;;;;;13.55;7.70;;;15.20;99.90;;;;;;5053958;28;20044;-85
2022/10/27 02:22:08;;;;;;;14.23;7.40;;;15.30;99.90;;;;;;5053649;28;20055;-84
2022/10/27 02:24:34;;;;;;;13.52;7.97;;;15.30;99.90;;;;;;5069715;28;20036;-85
2022/10/27 02:27:32;;;;;;;11.45;5.30;;;15.30;99.90;;;;;;5070195;28;20047;-85
2022/10/27 02:29:59;;;;;;;14.23;7.28;;;15.20;99.90;;;;;;5070114;28;20036;-85
2022/10/27 02:32:28;;;;;;;11.68;8.02;;;15.20;99.90;;;;;;5052720;28;20097;-85
2022/10/27 02:34:55;;;;;;;11.45;4.72;;;15.20;99.90;;;;;;5070036;28;20510;-85
2022/10/27 02:37:29;;;;;;;16.35;7.88;;;15.10;99.90;;;;;;5052101;28;20090;-85
2022/10/27 02:39:54;;;;;;;11.82;7.70;;;15.10;99.90;;;;;;5070180;28;20037;-85
2022/10/27 02:42:20;;;;;;;12.40;7.70;;;15.10;99.90;;;;;;5069162;28;20093;-84
2022/10/27 02:44:45;;;;;;;10.73;5.15;;;15.10;99.90;;;;;;5053154;28;20044;-85
2022/10/27 02:47:11;;;;;;;13.95;7.68;;;15.10;99.90;;;;;;5069645;28;20076;-85
2022/10/27 02:49:36;;;;;;;12.88;8.05;;;15.00;99.90;;;;;;5069661;28;20155;-85
2022/10/27 02:52:03;;;;;;;13.23;8.25;;;15.00;99.90;;;;;;5069327;28;20600;-85
2022/10/27 02:54:30;;;;;;;13.57;8.15;;;15.00;99.90;;;;;;5068677;28;20040;-85
2022/10/27 02:56:56;;;;;;;13.52;7.85;;;15.00;99.90;;;;;;5053388;28;20071;-85
2022/10/27 02:59:21;;;;;;;12.15;5.85;;;15.00;99.90;;;;;;5051983;28;20660;-84
2022/10/27 03:01:47;;;;;;;12.30;7.75;;;14.90;99.90;;;;;;5053005;28;20040;-85
2022/10/27 03:04:12;;;;;;;12.98;8.32;;;15.00;99.90;;;;;;5069059;28;20049;-85
2022/10/27 03:06:38;;;;;;;14.05;8.52;;;15.00;99.90;;;;;;5069723;28;20051;-84
2022/10/27 03:09:03;;;;;;;10.18;4.95;;;15.10;99.90;;;;;;5069173;28;20147;-85
2022/10/27 03:11:29;;;;;;;14.65;8.98;;;15.00;99.90;;;;;;5068824;28;20098;-85
2022/10/27 03:13:54;;;;;;;13.82;8.00;;;15.00;99.90;;;;;;5069553;28;20055;-84
2022/10/27 03:16:20;;;;;;;14.00;8.50;;;15.00;99.90;;;;;;5069003;28;20033;-85
2022/10/27 03:18:45;;;;;;;12.52;7.90;;;15.00;99.90;;;;;;5069360;28;20040;-85
2022/10/27 03:21:11;;;;;;;10.80;5.22;;;15.00;99.90;;;;;;5068896;28;20045;-85
2022/10/27 03:23:36;;;;;;;10.60;5.03;;;14.90;99.90;;;;;;5069424;28;20045;-85
2022/10/27 03:26:02;;;;;;;14.50;8.50;;;14.90;99.90;;;;;;5069661;28;20076;-84
2022/10/27 03:28:34;;;;;;;12.20;8.27;;;14.90;99.90;;;;;;5068825;28;20119;-85
2022/10/27 03:31:00;;;;;;;12.70;5.75;;;14.90;99.90;;;;;;5069312;28;20502;-85
2022/10/27 03:33:26;;;;;;;15.73;8.73;;;14.90;99.90;;;;;;5052072;28;20033;-85
2022/10/27 03:35:52;;;;;;;14.63;8.50;;;14.90;99.90;;;;;;5069342;28;20409;-85
2022/10/27 03:38:17;;;;;;;15.82;8.70;;;14.90;99.90;;;;;;5068578;28;20468;-84
2022/10/27 03:40:43;;;;;;;19.30;6.00;;;15.00;99.90;;;;;;5068532;28;20119;-84
2022/10/27 03:43:10;;;;;;;14.52;8.10;;;14.90;99.90;;;;;;5052354;28;20144;-84
2022/10/27 03:45:36;;;;;;;11.38;8.38;;;14.80;99.90;;;;;;5068191;28;20060;-84
2022/10/27 03:48:04;;;;;;;13.50;8.02;;;14.90;99.90;;;;;;5069319;28;20033;-84
2022/10/27 03:50:29;;;;;;;12.13;7.53;;;14.80;99.90;;;;;;5072400;28;20036;-84
2022/10/27 03:52:55;;;;;;;10.05;4.90;;;14.80;99.90;;;;;;5055569;28;20036;-84
2022/10/27 03:55:21;;;;;;;11.82;7.45;;;14.80;99.90;;;;;;5056001;28;20123;-84
2022/10/27 03:57:47;;;;;;;11.90;7.97;;;14.80;99.90;;;;;;5072605;28;20031;-84
2022/10/27 04:00:13;;;;;;;13.00;7.88;;;14.70;99.90;;;;;;5056018;28;20060;-84
2022/10/27 04:02:39;;;;;;;12.90;8.15;;;14.70;99.90;;;;;;5072881;28;20438;-84
2022/10/27 04:05:05;;;;;;;13.43;8.90;;;14.70;99.90;;;;;;5055331;28;20049;-84
2022/10/27 04:07:31;;;;;;;11.82;5.57;;;14.70;99.90;;;;;;5056248;28;20669;-84
2022/10/27 04:09:56;;;;;;;16.73;9.10;;;14.60;99.90;;;;;;5072659;28;20047;-84
2022/10/27 04:12:22;;;;;;;14.77;8.45;;;14.70;99.90;;;;;;5072238;28;20040;-84
2022/10/27 04:14:49;;;;;;;16.60;8.98;;;14.70;99.90;;;;;;5072526;28;20482;-84
2022/10/27 04:17:16;;;;;;;13.73;5.53;;;14.60;99.90;;;;;;5072630;28;20520;-84
2022/10/27 04:19:41;;;;;;;14.98;8.38;;;14.60;99.90;;;;;;5072192;28;20044;-84
2022/10/27 04:22:07;;;;;;;13.40;8.70;;;14.60;99.90;;;;;;5055016;28;20036;-84
2022/10/27 04:24:32;;;;;;;11.90;9.05;;;14.60;99.90;;;;;;5072352;28;20045;-84
2022/10/27 04:26:58;;;;;;;13.55;9.13;;;14.60;99.90;;;;;;5072461;28;20040;-84
2022/10/27 04:29:23;;;;;;;14.25;6.18;;;14.60;99.90;;;;;;5055230;28;20044;-84
2022/10/27 04:31:49;;;;;;;15.23;10.07;;;14.50;99.90;;;;;;5055745;28;20037;-84
2022/10/27 04:34:14;;;;;;;11.95;8.35;;;14.50;99.90;;;;;;5054966;28;20086;-84
2022/10/27 04:36:40;;;;;;;16.80;6.30;;;14.50;99.90;;;;;;5072956;28;20078;-84
2022/10/27 04:39:06;;;;;;;11.27;5.47;;;14.50;99.90;;;;;;5071745;28;20123;-84
2022/10/27 04:41:31;;;;;;;14.68;9.65;;;14.40;99.90;;;;;;5071779;28;20126;-84
2022/10/27 04:43:57;;;;;;;16.88;9.40;;;14.40;99.90;;;;;;5055814;28;20040;-83
2022/10/27 04:46:23;;;;;;;12.52;5.88;;;14.50;99.90;;;;;;5054695;28;20040;-83
2022/10/27 04:48:48;;;;;;;10.48;5.35;;;14.40;99.90;;;;;;5055772;28;20067;-83
2022/10/27 04:51:14;;;;;;;11.63;6.00;;;14.40;99.90;;;;;;5071446;28;20044;-83
2022/10/27 04:53:39;;;;;;;13.88;8.95;;;14.30;99.90;;;;;;5055518;28;20032;-83
2022/10/27 04:56:05;;;;;;;14.35;9.02;;;14.40;99.90;;;;;;5071813;28;20176;-83
2022/10/27 04:58:31;;;;;;;12.90;8.73;;;14.40;99.90;;;;;;5071721;28;20082;-83
2022/10/27 05:00:56;;;;;;;12.45;8.63;;;14.40;99.90;;;;;;5070448;28;20131;-83
2022/10/27 05:03:22;;;;;;;12.48;5.22;;;14.40;99.90;;;;;;5054941;28;20044;-83
2022/10/27 05:05:48;;;;;;;12.07;5.57;;;14.40;99.90;;;;;;5071739;28;20462;-83
2022/10/27 05:08:13;;;;;;;14.60;6.30;;;14.30;99.90;;;;;;5071974;28;20047;-83
2022/10/27 05:10:39;;;;;;;17.77;9.18;;;14.30;99.90;;;;;;5054765;28;20490;-83
2022/10/27 05:13:04;;;;;;;13.73;9.32;;;14.30;99.90;;;;;;5071664;28;20493;-83
2022/10/27 05:15:30;;;;;;;13.70;8.75;;;14.30;99.90;;;;;;5071202;28;20543;-83
2022/10/27 05:17:56;;;;;;;16.55;9.63;;;14.40;99.90;;;;;;5071421;28;20036;-83
2022/10/27 05:20:22;;;;;;;17.20;9.93;;;14.40;99.90;;;;;;5071562;28;20032;-83
2022/10/27 05:22:48;;;;;;;15.35;9.48;;;14.40;99.90;;;;;;5070223;28;20033;-83
2022/10/27 05:25:14;;;;;;;10.85;5.72;;;14.40;99.90;;;;;;5071444;28;20098;-83
2022/10/27 05:27:39;;;;;;;12.90;5.55;;;14.30;99.90;;;;;;5070916;28;20045;-83
2022/10/27 05:30:06;;;;;;;15.50;9.65;;;14.30;99.90;;;;;;5054809;28;20052;-83
2022/10/27 05:32:32;;;;;;;17.35;9.15;;;14.30;99.90;;;;;;5070081;28;20040;-83
2022/10/27 05:34:58;;;;;;;12.75;6.40;;;14.30;99.90;;;;;;5071407;28;20036;-83
2022/10/27 05:37:23;;;;;;;15.90;9.48;;;14.30;99.90;;;;;;5071159;28;20033;-83
2022/10/27 05:39:49;;;;;;;14.05;5.75;;;14.30;99.90;;;;;;5054277;28;20490;-83
2022/10/27 05:42:15;;;;;;;15.57;10.13;;;14.30;99.90;;;;;;5070954;28;20036;-83
2022/10/27 05:44:40;;;;;;;13.23;9.80;;;14.30;99.90;;;;;;5070528;28;20064;-83
2022/10/27 05:47:06;;;;;;;12.25;5.95;;;14.30;99.90;;;;;;5053469;28;20044;-83
2022/10/27 05:49:31;;;;;;;13.95;6.88;;;14.30;99.90;;;;;;5070523;28;20042;-83
2022/10/27 05:51:57;;;;;;;13.00;9.02;;;14.20;99.90;;;;;;5069317;28;20413;-83
2022/10/27 05:54:22;;;;;;;14.52;9.43;;;14.30;99.90;;;;;;5069966;28;20024;-83
2022/10/27 05:56:51;;;;;;;14.23;9.80;;;14.30;99.90;;;;;;5069867;28;20494;-83
2022/10/27 05:59:16;;;;;;;13.95;6.40;;;14.30;99.90;;;;;;5069722;28;20717;-83
2022/10/27 06:01:42;;;;;;;12.40;6.53;;;14.30;99.90;;;;;;5053628;28;20522;-83
2022/10/27 06:04:08;;;;;;;12.98;9.23;;;14.20;99.90;;;;;;5053239;28;20470;-83
2022/10/27 06:06:34;;;;;;;14.27;10.10;;;14.20;99.90;;;;;;5070484;28;20090;-83
2022/10/27 06:08:59;;;;;;;12.75;6.40;;;14.30;99.90;;;;;;5069607;28;20028;-83
2022/10/27 06:11:25;;;;;;;13.23;6.18;;;14.20;99.90;;;;;;5053562;28;20036;-83
2022/10/27 06:13:52;;;;;;;13.63;7.00;;;14.20;99.90;;;;;;5053782;28;20451;-83
2022/10/27 06:16:21;;;;;;;15.15;6.22;;;14.10;99.90;;;;;;5070170;28;20052;-83
2022/10/27 06:18:47;;;;;;;13.00;9.40;;;14.10;99.90;;;;;;5070521;28;20032;-83
2022/10/27 06:21:13;;;;;;;14.32;8.98;;;14.20;99.90;;;;;;5070009;28;20040;-83
2022/10/27 06:23:40;;;;;;;10.80;5.85;;;14.20;99.90;;;;;;5070364;28;20104;-83
2022/10/27 06:26:07;;;;;;;14.27;6.07;;;14.20;99.90;;;;;;5070478;28;20044;-83
2022/10/27 06:28:32;;;;;;;13.60;9.77;;;14.20;99.90;;;;;;5053061;28;20040;-83
2022/10/27 06:30:58;;;;;;;15.35;9.23;;;14.20;99.90;;;;;;5069897;28;20532;-83
2022/10/27 06:33:24;;;;;;;17.83;9.90;;;14.30;99.90;;;;;;5070071;28;20036;-83
2022/10/27 06:35:49;;;;;;;14.50;9.90;;;14.30;99.90;;;;;;5069853;28;20040;-83
2022/10/27 06:38:15;;;;;;;12.32;6.57;;;14.30;99.90;;;;;;5053657;28;20037;-83
2022/10/27 06:40:44;;;;;;;14.77;6.20;;;14.30;99.90;;;;;;5052815;28;20040;-83
2022/10/27 06:43:11;;;;;;;14.00;9.93;;;14.20;99.90;;;;;;5053067;28;20036;-83
2022/10/27 06:45:37;;;;;;;14.82;10.00;;;14.30;99.90;;;;;;5052917;28;20080;-83
2022/10/27 06:48:04;;;;;;;16.70;10.40;;;14.30;99.90;;;;;;5053114;28;20095;-83
2022/10/27 06:50:30;;;;;;;15.60;6.95;;;14.40;99.90;;;;;;5053600;28;20119;-83
2022/10/27 06:52:56;;;;;;;14.65;6.45;;;14.30;99.90;;;;;;5052371;28;20119;-83
2022/10/27 06:55:21;;;;;;;16.42;10.23;;;14.30;99.90;;;;;;5070161;28;20168;-83
2022/10/27 06:57:47;;;;;;;16.58;10.50;;;14.40;99.90;;;;;;5069933;28;20036;-83
2022/10/27 07:00:13;;;;;;;13.85;7.22;;;14.40;99.90;;;;;;5067369;28;20566;-84
2022/10/27 07:02:39;;;;;;;13.63;5.53;;;14.40;99.90;;;;;;5069043;28;20076;-83
2022/10/27 07:05:06;;;;;;;15.95;9.80;;;14.40;99.90;;;;;;5068296;28;20083;-83
2022/10/27 07:07:31;;;;;;;13.07;9.95;;;14.50;99.90;;;;;;5052303;28;20072;-83
2022/10/27 07:09:57;;;;;;;12.63;6.63;;;14.60;99.90;;;;;;5052060;28;20067;-83
2022/10/27 07:12:23;;;;;;;14.25;6.90;;;14.50;99.90;;;;;;5051847;28;20098;-83
2022/10/27 07:14:48;;;;;;;13.52;9.48;;;14.60;99.90;;;;;;5069377;28;20036;-83
2022/10/27 07:17:14;;;;;;;13.32;9.57;;;14.60;99.90;;;;;;5051837;28;20520;-83
2022/10/27 07:19:40;;;;;;;14.60;9.52;;;14.70;99.90;;;;;;5069384;28;20109;-83
2022/10/27 07:22:05;;;;;;;17.45;9.40;;;14.70;99.90;;;;;;5051545;28;20498;-83
2022/10/27 07:24:31;;;;;;;14.07;6.75;;;14.80;99.90;;;;;;5068130;28;20567;-83
2022/10/27 07:26:56;;;;;;;14.27;9.82;;;14.80;99.90;;;;;;5051406;28;20040;-83
2022/10/27 07:29:22;;;;;;;15.40;9.57;;;14.80;99.90;;;;;;5068016;28;20036;-83
2022/10/27 07:31:48;;;;;;;12.98;9.32;;;14.80;99.90;;;;;;5068203;28;20032;-83
2022/10/27 07:34:13;;;;;;;15.02;9.43;;;14.90;99.90;;;;;;5068449;28;20036;-83
2022/10/27 07:36:39;;;;;;;15.82;9.77;;;14.90;99.90;;;;;;5068367;28;20144;-83
2022/10/27 07:39:05;;;;;;;12.82;9.43;;;15.00;99.90;;;;;;5069058;28;20036;-83
2022/10/27 07:41:31;;;;;;;14.25;9.73;;;15.00;99.90;;;;;;5050504;28;20044;-83
2022/10/27 07:43:56;;;;;;;12.77;7.00;;;15.10;99.90;;;;;;5052557;28;20068;-83
2022/10/27 07:46:22;;;;;;;15.13;7.72;;;15.00;99.90;;;;;;5068221;28;20934;-83
2022/10/27 07:48:47;;;;;;;15.70;9.13;;;15.00;99.90;;;;;;5051978;28;20040;-83
2022/10/27 07:51:13;;;;;;;12.63;9.25;;;15.10;99.90;;;;;;5068347;28;20494;-83
2022/10/27 07:53:39;;;;;;;14.48;9.40;;;15.10;99.90;;;;;;5068300;28;20051;-83
2022/10/27 07:56:05;;;;;;;11.98;6.35;;;15.20;99.90;;;;;;5068650;28;20136;-83
2022/10/27 07:58:30;;;;;;;17.73;6.82;;;15.20;99.90;;;;;;5069012;28;20036;-83
2022/10/27 08:00:58;;;;;;;16.00;9.55;;;15.10;99.90;;;;;;5067599;28;20040;-83
2022/10/27 08:03:27;;;;;;;18.30;10.40;;;15.20;99.90;;;;;;5069252;28;20036;-84
2022/10/27 08:05:53;;;;;;;14.85;8.73;;;15.30;99.90;;;;;;5068185;28;20032;-84
2022/10/27 08:08:18;;;;;;;13.50;9.07;;;15.30;99.90;;;;;;5067691;28;20090;-84
2022/10/27 08:10:45;;;;;;;11.82;6.45;;;15.30;99.90;;;;;;5051997;28;20032;-84
2022/10/27 08:13:11;;;;;;;14.77;9.30;;;15.30;99.90;;;;;;5051410;28;20036;-84
2022/10/27 08:15:38;;;;;;;15.45;9.05;;;15.40;99.90;;;;;;5068647;28;20498;-84
2022/10/27 08:18:04;;;;;;;13.88;8.85;;;15.40;99.90;;;;;;5068496;28;20498;-84
2022/10/27 08:20:32;;;;;;;15.15;9.13;;;15.50;99.90;;;;;;5051487;28;20529;-84
2022/10/27 08:23:03;;;;;;;15.18;9.48;;;15.50;99.90;;;;;;5052163;28;20397;-84
2022/10/27 08:25:29;;;;;;;15.40;6.57;;;15.60;99.90;;;;;;5068256;28;20109;-84
2022/10/27 08:27:56;;;;;;;11.63;8.70;;;15.60;99.90;;;;;;5067933;28;20045;-84
2022/10/27 08:30:24;;;;;;;14.85;9.07;;;15.60;99.90;;;;;;5068669;28;20045;-84
2022/10/27 08:32:53;;;;;;;14.15;8.65;;;15.70;99.90;;;;;;5067470;28;20044;-84
2022/10/27 08:35:19;;;;;;;14.45;6.68;;;15.70;99.90;;;;;;5069485;28;20503;-84
2022/10/27 08:37:44;;;;;;;15.85;8.70;;;15.70;99.90;;;;;;5071586;28;20085;-84
2022/10/27 08:40:10;;;;;;;14.25;8.65;;;15.70;99.90;;;;;;5069667;28;20553;-84
2022/10/27 08:42:48;;;;;;;13.90;8.48;;;15.70;99.90;;;;;;5071838;28;20036;-84
2022/10/27 08:45:29;;;;;;;13.77;8.48;;;15.70;99.90;;;;;;5071398;28;20071;-84
2022/10/27 08:47:57;;;;;;;12.45;7.75;;;15.80;99.90;;;;;;5054761;28;20124;-84
2022/10/27 08:50:26;;;;;;;14.65;8.32;;;15.80;99.90;;;;;;5071324;28;20062;-84
2022/10/27 08:52:52;;;;;;;15.75;8.18;;;15.80;99.90;;;;;;5071040;28;20563;-84
2022/10/27 08:55:22;;;;;;;13.55;7.95;;;15.80;99.90;;;;;;5055385;28;20052;-84
2022/10/27 08:58:00;;;;;;;14.63;8.07;;;15.80;99.90;;;;;;5054795;28;20032;-84
2022/10/27 09:00:30;;;;;;;13.88;5.85;;;15.90;99.90;;;;;;5071284;28;20566;-84
2022/10/27 09:03:15;;;;;;;12.48;7.50;;;15.90;99.90;;;;;;5071493;28;20436;-84
2022/10/27 09:05:57;;;;;;;12.30;7.88;;;16.00;99.90;;;;;;5053969;28;20083;-84
2022/10/27 09:08:45;;;;;;;10.63;5.17;;;16.10;99.90;;;;;;5054115;28;20555;-84
2022/10/27 09:11:21;;;;;;;12.57;7.25;;;16.10;99.90;;;;;;5069881;28;20301;-84
2022/10/27 09:14:00;;;;;;;11.65;7.25;;;16.20;99.90;;;;;;5071622;28;20494;-84
2022/10/27 09:16:34;;;;;;;14.65;7.20;;;16.30;99.90;;;;;;5054178;28;20069;-84
2022/10/27 09:19:03;;;;;;;12.02;6.88;;;16.40;99.90;;;;;;5070770;28;20041;-84
2022/10/27 09:21:32;;;;;;;12.77;7.05;;;16.50;99.90;;;;;;5071016;28;20108;-84
2022/10/27 09:24:15;;;;;;;12.98;7.07;;;16.60;99.90;;;;;;5070534;28;20037;-83
2022/10/27 09:26:43;;;;;;;13.25;6.18;;;16.80;99.90;;;;;;5071575;28;20083;-84
2022/10/27 09:29:18;;;;;;;10.75;5.80;;;16.90;99.90;;;;;;5070066;28;20042;-84
2022/10/27 09:32:12;;;;;;;11.30;6.40;;;16.90;99.90;;;;;;5070382;28;20036;-83
2022/10/27 09:34:44;;;;;;;;;;;17.10;99.90;;;;;;5070857;28;20105;-83
2022/10/27 09:37:14;;;;;;;14.30;5.57;;;17.00;99.90;;;;;;5070518;28;19920;-84
2022/10/27 09:39:49;;;;;;;12.77;5.78;;;17.10;99.90;;;;;;5071042;28;20086;-84
2022/10/27 09:42:15;;;;;;;10.30;5.40;;;17.20;99.90;;;;;;5068539;28;20494;-84
2022/10/27 09:44:51;;;;;;;10.05;5.30;;;17.30;99.90;;;;;;5071395;28;20077;-84
2022/10/27 09:47:18;;;;;;;11.07;5.40;;;17.40;99.90;;;;;;5053528;28;20098;-84
2022/10/27 09:49:50;;;;;;;9.85;4.65;;;17.40;99.90;;;;;;5052615;28;20131;-84
2022/10/27 09:52:27;;;;;;;10.73;4.15;;;17.50;99.90;;;;;;5050821;28;20037;-84
2022/10/27 09:54:54;;;;;;;11.38;5.25;;;17.50;99.90;;;;;;5069174;28;20032;-84
2022/10/27 09:57:25;;;;;;;8.15;4.25;;;17.60;99.90;;;;;;5053703;28;20063;-84
2022/10/27 10:00:06;;;;;;;10.77;4.47;;;17.70;99.90;;;;;;5053353;28;20734;-84
2022/10/27 10:02:34;;;;;;;11.57;4.30;;;17.80;99.90;;;;;;5053435;28;20590;-84
2022/10/27 10:05:01;;;;;;;11.63;4.68;;;17.90;99.90;;;;;;5053367;28;20044;-84
2022/10/27 10:07:35;;;;;;;10.52;4.00;;;18.00;99.90;;;;;;5070051;28;20036;-84
2022/10/27 10:10:21;;;;;;;10.48;4.07;;;18.00;99.90;;;;;;5053474;28;20502;-85
2022/10/27 10:13:08;;;;;;;10.02;4.07;;;18.10;99.90;;;;;;5068647;28;20051;-84
2022/10/27 10:16:04;;;;;;;10.07;3.70;;;18.10;99.90;;;;;;5070688;28;20463;-84
2022/10/27 10:18:31;;;;;;;10.95;3.80;;;18.20;99.90;;;;;;5063343;28;20048;-84
2022/10/27 10:21:00;;;;;;;12.52;3.70;;;18.20;99.90;;;;;;5069757;28;20043;-84
2022/10/27 10:23:33;;;;;;;9.88;3.50;;;18.30;99.90;;;;;;5052738;28;20046;-84
2022/10/27 10:26:00;;;;;;;8.40;3.75;;;18.40;99.90;;;;;;5070623;28;20040;-84
2022/10/27 10:28:33;;;;;;;10.30;3.42;;;18.50;99.90;;;;;;5069469;28;20482;-84
2022/10/27 10:31:01;;;;;;;8.32;3.10;;;18.60;99.90;;;;;;5068349;28;20031;-85
2022/10/27 10:33:33;;;;;;;9.20;3.35;;;18.60;99.90;;;;;;5052879;28;20039;-84
2022/10/27 10:35:58;;;;;;;9.33;2.90;;;18.70;99.90;;;;;;5069348;28;20036;-83
2022/10/27 10:38:34;;;;;;;9.15;2.90;;;18.80;99.90;;;;;;5052417;28;20477;-84
2022/10/27 10:41:05;;;;;;;9.35;2.80;;;18.90;99.90;;;;;;5050950;28;20067;-84
2022/10/27 10:43:31;;;;;;;9.73;2.80;;;19.10;99.90;;;;;;5052636;28;20033;-84
2022/10/27 10:45:57;;;;;;;7.60;2.65;;;19.10;99.90;;;;;;5069878;28;20040;-84
2022/10/27 10:48:28;;;;;;;9.45;2.90;;;19.20;99.90;;;;;;5051909;28;20076;-84
2022/10/27 10:50:55;;;;;;;10.15;2.75;;;19.20;99.90;;;;;;5044577;28;20029;-84
2022/10/27 10:53:33;;;;;;;10.50;2.80;;;19.20;99.90;;;;;;5050391;28;20037;-84
2022/10/27 10:56:03;;;;;;;8.40;2.90;;;19.20;99.90;;;;;;5050784;28;20043;-84
2022/10/27 10:58:31;;;;;;;10.10;2.85;;;19.20;99.90;;;;;;5052059;28;20048;-84
2022/10/27 11:01:03;;;;;;;8.00;2.50;;;19.30;99.90;;;;;;5051711;28;20040;-84
2022/10/27 11:03:32;;;;;;;9.60;2.53;;;19.30;99.90;;;;;;5069379;28;20513;-84
2022/10/27 11:06:01;;;;;;;9.00;2.80;;;19.30;99.90;;;;;;5068866;28;20285;-84
2022/10/27 11:08:41;;;;;;;9.30;2.70;;;19.40;99.90;;;;;;5069096;28;20037;-84
2022/10/27 11:11:17;;;;;;;8.20;2.60;;;19.40;99.90;;;;;;5051784;28;20111;-84
2022/10/27 11:13:49;;;;;;;8.70;2.40;;;19.50;99.90;;;;;;5068676;28;20047;-84
2022/10/27 11:16:15;;;;;;;8.07;2.72;;;19.50;99.90;;;;;;5068285;28;20032;-84
2022/10/27 11:18:46;;;;;;;8.65;2.70;;;19.60;99.90;;;;;;5068148;28;20040;-84
2022/10/27 11:21:40;;;;;;;10.00;2.60;;;19.60;99.90;;;;;;5068981;28;20029;-84
2022/10/27 11:24:11;;;;;;;8.18;2.42;;;19.70;99.90;;;;;;5067961;28;20140;-84
2022/10/27 11:26:52;;;;;;;6.93;2.55;;;19.80;99.90;;;;;;5069325;28;20383;-84
2022/10/27 11:29:29;;;;;;;9.35;2.70;;;19.90;99.90;;;;;;5068471;28;20048;-84
2022/10/27 11:32:13;;;;;;;9.90;3.03;;;19.90;99.90;;;;;;5051532;28;20040;-84
2022/10/27 11:35:14;;;;;;;10.85;2.75;;;20.00;99.90;;;;;;5068689;28;20032;-84
2022/10/27 11:37:56;;;;;;;9.05;2.83;;;20.00;99.90;;;;;;5069145;28;20191;-84
2022/10/27 11:40:41;;;;;;;10.15;2.58;;;20.00;99.90;;;;;;5068726;28;20047;-84
2022/10/27 11:43:29;;;;;;;9.38;2.80;;;20.00;99.90;;;;;;5052178;28;20055;-84
2022/10/27 11:46:17;;;;;;;10.35;2.67;;;20.10;99.90;;;;;;5068796;28;20045;-84
2022/10/27 11:49:11;;;;;;;6.57;2.10;;;20.00;99.90;;;;;;5068396;28;20394;-84
2022/10/27 11:51:45;;;;;;;9.02;2.45;;;20.00;99.90;;;;;;5068144;28;20041;-84
2022/10/27 11:54:11;;;;;;;8.05;2.50;;;20.00;99.90;;;;;;5068281;28;20442;-84
2022/10/27 11:56:39;;;;;;;7.57;2.80;;;20.00;99.90;;;;;;5068968;28;20514;-84
2022/10/27 11:59:16;;;;;;;9.85;2.97;;;20.00;99.90;;;;;;5050978;28;20048;-84
2022/10/27 12:01:56;;;;;;;8.10;2.42;;;20.00;99.90;;;;;;5051654;28;20132;-84
2022/10/27 12:04:47;;;;;;;8.13;2.65;;;20.00;99.90;;;;;;5050555;28;20044;-84
2022/10/27 12:07:37;;;;;;;8.23;2.72;;;20.00;99.90;;;;;;5052274;28;20049;-84
2022/10/27 12:10:26;;;;;;;9.30;2.50;;;20.00;99.90;;;;;;5069394;28;20036;-84
2022/10/27 12:12:58;;;;;;;11.23;2.30;;;20.10;99.90;;;;;;5071762;28;20049;-84
2022/10/27 12:15:50;;;;;;;;;;;20.10;99.90;;;;;;5072519;28;20120;-84
2022/10/27 12:18:32;;;;;;;7.35;2.20;;;20.10;99.90;;;;;;5068142;28;19978;-84
2022/10/27 12:21:21;;;;;;;9.40;2.50;;;20.10;99.90;;;;;;5054372;28;20043;-84
2022/10/27 12:23:59;;;;;;;10.27;2.85;;;20.30;99.90;;;;;;5054719;28;20052;-84
2022/10/27 12:26:36;;;;;;;8.70;2.40;;;20.40;99.90;;;;;;5056295;28;20047;-84
2022/10/27 12:29:04;;;;;;;8.55;2.10;;;20.40;99.90;;;;;;5054379;28;20040;-84
2022/10/27 12:31:31;;;;;;;6.90;2.28;;;20.50;99.90;;;;;;5054785;28;20056;-84
2022/10/27 12:34:00;;;;;;;10.02;2.45;;;20.60;99.90;;;;;;5072075;28;20390;-84
2022/10/27 12:36:52;;;;;;;7.35;2.20;;;20.70;99.90;;;;;;5053001;28;20041;-84
2022/10/27 12:39:35;;;;;;;8.35;2.17;;;20.80;99.90;;;;;;5071267;28;20032;-84
2022/10/27 12:42:10;;;;;;;9.15;2.72;;;21.00;99.90;;;;;;5053137;28;20032;-84
2022/10/27 12:45:20;;;;;;;7.60;1.85;;;21.10;99.90;;;;;;5068327;28;20587;-84
2022/10/27 12:48:23;;;;;;;10.98;2.33;;;21.20;99.90;;;;;;5053527;28;20074;-84
2022/10/27 12:51:00;;;;;;;9.93;2.45;;;21.10;99.90;;;;;;5051826;28;20406;-84
2022/10/27 12:53:34;;;;;;;9.98;2.33;;;21.10;99.90;;;;;;5070494;28;20040;-84
2022/10/27 12:56:22;;;;;;;7.47;2.20;;;21.10;99.90;;;;;;5071711;28;20114;-84